Troy, Alabama
Current Conditions -  °F | °C
As of 6:53 PM on Friday 28 Nov 2014 (Local Time) from KTOI Reporting Station
Clear Clear  
Wind Chill: 39°   Ceiling: Unl
Heat Index: 39°   Visibility: 10mi
Dew Point: 28°   Wind: 0mph
Humidity: 65%   Direction: NA
Pressure: 30.31"   Gusts: NA
Location:  31.81°N, 85.97°W
Report Text: KTOI 290053Z AUTO 00000KT 10SM CLR 04/M02 A3031 RMK AO2 SLP266 T00391022
Loading
Personal Weather Stations






























Interactive Weather Map New forecast layout! Learn more

10-Day Weather Forecast

Advertisements
Track Severe Weather on mobile